X  CloseMetar Aviation Weather Data     EGGD Bristol International

Temperature

7°C Temperature

6°C Dewpoint

93% Humidity



Wind

19 KM/H

12 MPH

 5 M/S

10 KTS



70°
East North
East
Current Conditions

Mist Mist
Pressure 1034.92 (hPa) - 30.56 (in)
Visibility 3.1 (mi) - 5 (km)
Airport
Airport-code EGGD

Location Bristol International 9 (mi)

Metar:
EGGD 222050Z AUTO 07010KT 5000 BR OVC002 07/06 Q1035

Time: 2020-01-22 20:50